Time;durP1;ratioP1;P1;durP2;ratioP2;P2;SDS_P1;SDS_P2;PMS_P1;PMS_P2;Temp;Humidity;BMP_temperature;BMP_pressure;BME280_temperature;BME280_humidity;BME280_pressure;Samples;Min_cycle;Max_cycle;Signal;HPM_P1;HPM_P2
2023/06/17 00:02:20;;;;;;;3.67;1.63;;;;;;;21.05;100.00;99556.97;4986339;28;20026;-72
2023/06/17 00:04:46;;;;;;;3.17;1.77;;;;;;;21.39;100.00;99610.19;4987103;28;20061;-73
2023/06/17 00:07:11;;;;;;;6.18;2.22;;;;;;;21.28;100.00;99598.34;4987577;28;20129;-73
2023/06/17 00:09:40;;;;;;;3.08;2.17;;;;;;;21.42;100.00;99610.03;4983858;28;20042;-74
2023/06/17 00:12:05;;;;;;;5.63;1.65;;;;;;;21.76;100.00;99688.22;4986234;28;20112;-72
2023/06/17 00:14:32;;;;;;;3.42;2.35;;;;;;;21.71;100.00;99683.97;4988998;28;20038;-72
2023/06/17 00:17:00;;;;;;;5.15;2.30;;;;;;;21.03;100.00;99590.00;4989453;28;20034;-72
2023/06/17 00:19:27;;;;;;;2.25;1.60;;;;;;;21.03;100.00;99588.19;4989134;28;20031;-72
2023/06/17 00:21:53;;;;;;;3.90;2.45;;;;;;;20.97;100.00;99582.34;4989592;28;20038;-72
2023/06/17 00:24:19;;;;;;;2.70;1.70;;;;;;;21.07;100.00;99607.53;4989043;28;20034;-72
2023/06/17 00:26:46;;;;;;;2.55;1.77;;;;;;;21.45;100.00;99679.28;4990545;28;20129;-72
2023/06/17 00:29:11;;;;;;;7.72;2.72;;;;;;;21.56;100.00;99692.00;4990187;28;20069;-72
2023/06/17 00:31:37;;;;;;;4.35;1.83;;;;;;;21.16;100.00;99623.03;4990573;28;20038;-72
2023/06/17 00:34:02;;;;;;;4.22;1.83;;;;;;;21.38;100.00;99678.75;4989999;28;20114;-73
2023/06/17 00:36:28;;;;;;;3.50;1.75;;;;;;;20.22;100.00;99459.41;4991629;28;20061;-73
2023/06/17 00:38:53;;;;;;;6.30;2.45;;;;;;;21.54;100.00;99693.91;4992031;28;20447;-72
2023/06/17 00:41:19;;;;;;;3.03;1.73;;;;;;;21.35;100.00;99667.34;4990607;28;20030;-73
2023/06/17 00:43:45;;;;;;;2.42;1.75;;;;;;;21.46;100.00;99681.84;4989495;28;20045;-73
2023/06/17 00:46:40;;;;;;;3.78;2.13;;;;;;;21.43;100.00;99687.38;5010530;28;20039;-72
2023/06/17 00:49:11;;;;;;;2.72;1.50;;;;;;;21.13;100.00;99614.34;4981082;28;20062;-73
2023/06/17 00:51:38;;;;;;;2.85;1.38;;;;;;;20.71;100.00;99589.97;4991147;28;20049;-72
2023/06/17 00:54:05;;;;;;;3.67;1.85;;;;;;;21.41;100.00;99672.41;4990361;28;20034;-72
2023/06/17 00:56:31;;;;;;;2.58;1.27;;;;;;;21.54;100.00;99683.22;4971052;28;20093;-72
2023/06/17 00:58:57;;;;;;;3.47;2.05;;;;;;;21.58;100.00;99693.63;4971032;28;20081;-72
2023/06/17 01:01:26;;;;;;;3.38;2.03;;;;;;;21.40;100.00;99676.88;4970351;28;20174;-73
2023/06/17 01:03:59;;;;;;;4.63;2.85;;;;;;;20.97;100.00;99601.88;4970808;28;20038;-73
2023/06/17 01:06:55;;;;;;;3.17;2.25;;;;;;;21.60;100.00;99699.75;4968926;28;20150;-72
2023/06/17 01:09:26;;;;;;;2.40;1.27;;;;;;;21.58;100.00;99704.31;4971333;28;20042;-72
2023/06/17 01:11:55;;;;;;;5.88;1.75;;;;;;;21.35;100.00;99670.03;4968754;28;20114;-72
2023/06/17 01:14:21;;;;;;;3.58;2.10;;;;;;;20.92;100.00;99592.41;4970200;28;20050;-72
2023/06/17 01:16:50;;;;;;;3.67;2.30;;;;;;;20.82;100.00;99600.94;4969809;28;20058;-72
2023/06/17 01:19:23;;;;;;;3.65;2.00;;;;;;;21.24;100.00;99681.31;4970119;28;20034;-72
2023/06/17 01:21:51;;;;;;;4.63;2.37;;;;;;;20.34;100.00;99540.47;4970140;28;20039;-72
2023/06/17 01:24:33;;;;;;;2.55;1.80;;;;;;;21.43;100.00;99708.72;4969512;28;20448;-72
2023/06/17 01:27:02;;;;;;;3.88;2.35;;;;;;;21.16;100.00;99681.72;4970104;28;20034;-73
2023/06/17 01:29:32;;;;;;;2.45;1.67;;;;;;;20.80;100.00;99610.81;4970367;28;20039;-73
2023/06/17 01:31:59;;;;;;;3.60;2.05;;;;;;;21.38;100.00;99691.22;4970218;28;20045;-73
2023/06/17 01:34:34;;;;;;;3.47;2.17;;;;;;;21.30;100.00;99702.31;4970209;28;20039;-72
2023/06/17 01:37:03;;;;;;;3.35;2.15;;;;;;;20.70;100.00;99603.38;4970185;28;20046;-72
2023/06/17 01:39:32;;;;;;;3.53;2.42;;;;;;;20.71;100.00;99594.47;4970093;28;20027;-72
2023/06/17 01:42:00;;;;;;;2.80;1.73;;;;;;;21.27;100.00;99682.00;4968588;28;20034;-72
2023/06/17 01:44:27;;;;;;;5.60;2.08;;;;;;;21.21;100.00;99678.81;4969921;28;20049;-72
2023/06/17 01:46:53;;;;;;;4.75;2.25;;;;;;;20.64;100.00;99591.28;4969313;28;20077;-73
2023/06/17 01:49:18;;;;;;;5.30;2.00;;;;;;;20.51;100.00;99572.41;4969698;28;20172;-72
2023/06/17 01:51:45;;;;;;;3.90;2.35;;;;;;;19.60;100.00;99420.09;4967973;28;20039;-72
2023/06/17 01:54:10;;;;;;;10.77;2.30;;;;;;;21.15;100.00;99668.50;4968816;28;20505;-72
2023/06/17 01:56:36;;;;;;;3.42;2.03;;;;;;;21.20;100.00;99691.28;4988974;28;20030;-72
2023/06/17 01:59:02;;;;;;;2.60;1.40;;;;;;;20.66;100.00;99608.91;4988750;28;20030;-73
2023/06/17 02:01:27;;;;;;;4.90;2.35;;;;;;;20.55;100.00;99583.75;4987109;28;20037;-72
2023/06/17 02:03:52;;;;;;;4.03;2.47;;;;;;;20.33;100.00;99555.59;4988775;28;20049;-72
2023/06/17 02:06:18;;;;;;;2.65;1.58;;;;;;;20.49;100.00;99618.75;4988514;28;20027;-72
2023/06/17 02:08:45;;;;;;;2.92;1.83;;;;;;;20.62;100.00;99618.00;4988982;28;20037;-73
2023/06/17 02:11:11;;;;;;;3.60;2.10;;;;;;;21.15;100.00;99709.38;4987153;28;20091;-71
2023/06/17 02:13:36;;;;;;;3.20;1.50;;;;;;;21.02;100.00;99678.97;4988497;28;20038;-72
2023/06/17 02:16:03;;;;;;;3.22;2.08;;;;;;;20.37;100.00;99574.94;4988609;28;20031;-72
2023/06/17 02:18:28;;;;;;;3.45;2.00;;;;;;;21.10;100.00;99706.09;4987985;28;20038;-72
2023/06/17 02:20:54;;;;;;;3.67;1.85;;;;;;;20.57;100.00;99617.41;4988373;28;20101;-73
2023/06/17 02:23:19;;;;;;;2.97;1.70;;;;;;;20.88;100.00;99674.38;4988740;28;20118;-72
2023/06/17 02:25:45;;;;;;;23.52;2.05;;;;;;;20.31;100.00;99567.28;4988701;28;20029;-72
2023/06/17 02:28:11;;;;;;;8.50;3.17;;;;;;;20.88;100.00;99679.72;4988502;28;20057;-72
2023/06/17 02:30:36;;;;;;;4.45;2.42;;;;;;;20.38;100.00;99608.66;4988453;28;20045;-72
2023/06/17 02:33:02;;;;;;;3.97;2.00;;;;;;;20.80;100.00;99700.63;4987979;28;20045;-72
2023/06/17 02:35:27;;;;;;;3.28;2.22;;;;;;;20.97;100.00;99707.69;4988282;28;20084;-72
2023/06/17 02:37:54;;;;;;;2.83;1.73;;;;;;;20.22;100.00;99581.94;4988274;28;20026;-72
2023/06/17 02:40:20;;;;;;;3.97;2.58;;;;;;;20.98;100.00;99710.31;4988326;28;20038;-73
2023/06/17 02:42:46;;;;;;;5.15;2.63;;;;;;;20.98;100.00;99712.97;4988248;28;20034;-72
2023/06/17 02:45:12;;;;;;;6.28;1.88;;;;;;;20.82;100.00;99693.41;4986517;28;20096;-72
2023/06/17 02:47:38;;;;;;;3.55;2.08;;;;;;;20.20;100.00;99587.34;4987578;28;20402;-72
2023/06/17 02:50:06;;;;;;;4.63;1.70;;;;;;;20.38;100.00;99628.16;4988173;28;20038;-73
2023/06/17 02:52:34;;;;;;;3.22;2.00;;;;;;;20.64;100.00;99666.78;4988111;28;20039;-72
2023/06/17 02:54:59;;;;;;;3.08;2.22;;;;;;;20.24;100.00;99617.38;4987626;28;20058;-73
2023/06/17 02:57:25;;;;;;;4.82;2.17;;;;;;;20.76;100.00;99718.56;4988117;28;20030;-73
2023/06/17 02:59:51;;;;;;;6.75;3.60;;;;;;;20.61;100.00;99716.75;4985928;28;20042;-72
2023/06/17 03:02:16;;;;;;;3.97;2.15;;;;;;;20.61;100.00;99706.06;4988051;28;20030;-73
2023/06/17 03:04:43;;;;;;;5.05;1.65;;;;;;;20.12;100.00;99679.28;4987965;28;20498;-72
2023/06/17 03:07:08;;;;;;;2.80;2.22;;;;;;;20.47;100.00;99704.09;4987720;28;20038;-73
2023/06/17 03:09:33;;;;;;;4.68;2.58;;;;;;;19.29;100.00;99521.94;4987498;28;20225;-71
2023/06/17 03:12:02;;;;;;;4.68;2.75;;;;;;;19.65;100.00;99584.03;4987689;28;20030;-72
2023/06/17 03:14:29;;;;;;;3.33;2.35;;;;;;;20.29;100.00;99694.38;4987209;28;20101;-73
2023/06/17 03:16:57;;;;;;;4.63;2.53;;;;;;;20.30;100.00;99720.97;4986849;28;20030;-72
2023/06/17 03:19:24;;;;;;;8.30;2.72;;;;;;;19.71;100.00;99597.88;4987534;28;20034;-72
2023/06/17 03:21:50;;;;;;;6.13;3.42;;;;;;;20.12;100.00;99711.25;4987279;28;20477;-72
2023/06/17 03:24:16;;;;;;;5.65;3.13;;;;;;;20.01;100.00;99693.13;4987663;28;20038;-73
2023/06/17 03:26:42;;;;;;;6.65;3.13;;;;;;;19.80;100.00;99658.66;4988223;28;20034;-72
2023/06/17 03:29:07;;;;;;;4.00;3.20;;;;;;;19.60;100.00;99632.16;4987028;28;20046;-73
2023/06/17 03:31:35;;;;;;;4.85;2.70;;;;;;;19.93;100.00;99680.22;4986035;28;20030;-74
2023/06/17 03:34:00;;;;;;;3.75;2.80;;;;;;;19.97;100.00;99700.44;4987254;28;20084;-74
2023/06/17 03:36:28;;;;;;;6.05;3.33;;;;;;;19.43;100.00;99603.69;4987334;28;20046;-72
2023/06/17 03:38:54;;;;;;;3.92;2.35;;;;;;;20.06;100.00;99700.88;4987638;28;20402;-72
2023/06/17 03:41:20;;;;;;;3.63;2.20;;;;;;;19.89;100.00;99683.97;4987282;28;20117;-71
2023/06/17 03:43:46;;;;;;;9.95;3.65;;;;;;;19.99;100.00;99698.56;4986979;28;20112;-72
2023/06/17 03:46:11;;;;;;;5.05;3.20;;;;;;;19.68;100.00;99637.97;4987482;28;20451;-72
2023/06/17 03:48:37;;;;;;;4.40;2.60;;;;;;;20.17;100.00;99728.72;4986694;28;20121;-72
2023/06/17 03:51:02;;;;;;;4.40;3.25;;;;;;;20.36;100.00;99735.75;4987053;28;20069;-72
2023/06/17 03:53:29;;;;;;;5.72;2.63;;;;;;;20.34;100.00;99746.50;4987004;28;20061;-72
2023/06/17 03:55:54;;;;;;;5.13;2.72;;;;;;;20.31;100.00;99719.16;4987181;28;20470;-73
2023/06/17 03:58:20;;;;;;;5.43;2.78;;;;;;;20.40;100.00;99742.66;4986745;28;20034;-72
2023/06/17 04:00:47;;;;;;;11.52;3.60;;;;;;;20.10;100.00;99667.84;4985636;28;20518;-74
2023/06/17 04:03:13;;;;;;;4.75;3.33;;;;;;;19.85;100.00;99622.94;4987174;28;20030;-73
2023/06/17 04:05:40;;;;;;;4.43;3.53;;;;;;;20.56;100.00;99748.97;4975129;28;20142;-73
2023/06/17 04:08:06;;;;;;;5.78;4.20;;;;;;;20.06;100.00;99650.28;4967357;28;20062;-72
2023/06/17 04:10:32;;;;;;;6.15;2.97;;;;;;;20.02;100.00;99649.59;4967654;28;20063;-72
2023/06/17 04:12:57;;;;;;;4.68;2.63;;;;;;;20.55;100.00;99733.00;4971035;28;20049;-73
2023/06/17 04:15:22;;;;;;;4.53;3.60;;;;;;;20.11;100.00;99658.91;4971814;28;20043;-71
2023/06/17 04:17:48;;;;;;;4.90;2.47;;;;;;;20.50;100.00;99708.41;4981957;28;20670;-72
2023/06/17 04:20:14;;;;;;;4.57;2.15;;;;;;;20.64;100.00;99740.56;4989168;28;20038;-73
2023/06/17 04:22:42;;;;;;;8.60;3.13;;;;;;;20.62;100.00;99726.44;4990911;28;20038;-73
2023/06/17 04:25:09;;;;;;;4.93;3.10;;;;;;;20.70;100.00;99742.03;4991217;28;20097;-73
2023/06/17 04:27:36;;;;;;;4.97;2.95;;;;;;;20.60;100.00;99707.88;4990343;28;20141;-72
2023/06/17 04:30:04;;;;;;;3.38;2.53;;;;;;;20.26;100.00;99634.13;4990509;28;20042;-73
2023/06/17 04:32:29;;;;;;;8.35;3.92;;;;;;;20.26;100.00;99633.28;4989922;28;20042;-72
2023/06/17 04:34:55;;;;;;;5.18;3.53;;;;;;;20.09;100.00;99613.72;4990538;28;20111;-72
2023/06/17 04:37:20;;;;;;;4.10;3.08;;;;;;;19.74;100.00;99620.84;4989185;28;20386;-73
2023/06/17 04:39:46;;;;;;;4.70;3.13;;;;;;;20.52;100.00;99717.19;4990493;28;20066;-72
2023/06/17 04:42:18;;;;;;;4.65;2.80;;;;;;;20.68;100.00;99733.28;4990428;28;20042;-73
2023/06/17 04:44:44;;;;;;;3.67;2.60;;;;;;;20.43;100.00;99699.88;4990291;28;20599;-73
2023/06/17 04:47:10;;;;;;;3.50;2.30;;;;;;;20.51;100.00;99703.00;4990006;28;20038;-72
2023/06/17 04:49:41;;;;;;;5.47;2.50;;;;;;;20.71;100.00;99741.97;4990397;28;20085;-72
2023/06/17 04:52:08;;;;;;;4.47;3.00;;;;;;;19.85;100.00;99613.16;4990676;28;20034;-72
2023/06/17 04:54:34;;;;;;;6.50;4.07;;;;;;;20.63;100.00;99722.84;4977371;28;20072;-72
2023/06/17 04:57:01;;;;;;;4.88;3.55;;;;;;;20.72;100.00;99708.16;4990088;28;20039;-72
2023/06/17 04:59:27;;;;;;;6.28;3.50;;;;;;;20.36;100.00;99638.03;4990205;28;20049;-72
2023/06/17 05:01:52;;;;;;;4.63;3.45;;;;;;;20.84;100.00;99720.84;4990542;28;20038;-72
2023/06/17 05:04:18;;;;;;;4.63;2.85;;;;;;;20.06;100.00;99584.56;4989272;28;20034;-72
2023/06/17 05:06:44;;;;;;;5.88;3.00;;;;;;;21.00;100.00;99736.88;4989969;28;20026;-73
2023/06/17 05:09:10;;;;;;;5.63;3.80;;;;;;;20.49;100.00;99656.91;4989160;28;20042;-73
2023/06/17 05:11:38;;;;;;;5.60;4.10;;;;;;;20.55;100.00;99661.03;4989190;28;20127;-72
2023/06/17 05:14:04;;;;;;;7.10;3.80;;;;;;;20.35;100.00;99638.97;4989496;28;20458;-73
2023/06/17 05:16:30;;;;;;;6.07;3.40;;;;;;;21.04;100.00;99746.44;4989137;28;20141;-73
2023/06/17 05:18:55;;;;;;;4.82;3.47;;;;;;;21.09;100.00;99747.03;4989131;28;20033;-73
2023/06/17 05:21:24;;;;;;;5.10;3.67;;;;;;;20.96;100.00;99770.00;5020731;28;20114;-73
2023/06/17 05:23:50;;;;;;;7.90;4.53;;;;;;;20.96;100.00;99730.84;4989064;28;20030;-73
2023/06/17 05:26:16;;;;;;;5.47;4.00;;;;;;;20.95;100.00;99744.25;4989165;28;20157;-73
2023/06/17 05:28:42;;;;;;;5.38;3.00;;;;;;;21.21;100.00;99769.53;4988030;28;20486;-72
2023/06/17 05:31:09;;;;;;;5.65;4.38;;;;;;;21.23;100.00;99756.97;4989420;28;20053;-72
2023/06/17 05:33:34;;;;;;;7.25;4.65;;;;;;;21.38;100.00;99741.94;4989528;28;20026;-72
2023/06/17 05:36:00;;;;;;;6.97;4.40;;;;;;;21.08;100.00;99697.31;4989467;28;20030;-73
2023/06/17 05:38:29;;;;;;;8.50;4.60;;;;;;;21.52;100.00;99757.19;4988903;28;20031;-72
2023/06/17 05:40:55;;;;;;;6.32;3.58;;;;;;;21.56;100.00;99756.94;4988960;28;20103;-73
2023/06/17 05:43:21;;;;;;;6.07;3.75;;;;;;;21.64;100.00;99769.88;4989107;28;20034;-72
2023/06/17 05:45:46;;;;;;;6.13;4.10;;;;;;;21.62;100.00;99769.94;4987465;28;20435;-72
2023/06/17 05:48:12;;;;;;;5.55;3.67;;;;;;;21.82;100.00;99805.34;4973942;28;20038;-72
2023/06/17 05:50:38;;;;;;;4.45;3.00;;;;;;;21.81;100.00;99792.97;4988987;28;20033;-72
2023/06/17 05:53:04;;;;;;;10.30;4.65;;;;;;;21.21;100.00;99684.16;4988505;28;20037;-72
2023/06/17 05:55:29;;;;;;;8.30;4.40;;;;;;;21.59;100.00;99771.94;4988966;28;20140;-72
2023/06/17 05:57:55;;;;;;;6.57;3.95;;;;;;;21.42;100.00;99722.16;4988813;28;20042;-73
2023/06/17 06:00:22;;;;;;;5.95;4.00;;;;;;;21.64;100.00;99761.88;4988676;28;20463;-73
2023/06/17 06:02:48;;;;;;;7.55;3.80;;;;;;;20.86;100.00;99614.94;4988206;28;20058;-72
2023/06/17 06:05:13;;;;;;;6.47;3.63;;;;;;;21.68;100.00;99774.97;4989308;28;20564;-73
2023/06/17 06:07:41;;;;;;;6.13;4.20;;;;;;;21.83;100.00;99780.38;4988749;28;20035;-73
2023/06/17 06:10:07;;;;;;;9.25;5.57;;;;;;;21.99;100.00;99793.72;4986908;28;20027;-73
2023/06/17 06:12:32;;;;;;;7.95;4.35;;;;;;;21.94;100.00;99777.97;4986849;28;20046;-72
2023/06/17 06:14:58;;;;;;;7.68;3.60;;;;;;;21.59;100.00;99699.88;4988231;28;20045;-73
2023/06/17 06:17:24;;;;;;;37.13;23.00;;;;;;;21.81;100.00;99729.72;4987348;28;20026;-71
2023/06/17 06:19:50;;;;;;;7.82;5.45;;;;;;;21.39;100.00;99693.78;4988448;28;20030;-72
2023/06/17 06:22:16;;;;;;;14.35;5.22;;;;;;;22.06;100.00;99779.94;4988126;28;20042;-72
2023/06/17 06:24:41;;;;;;;5.47;3.38;;;;;;;22.32;100.00;99805.16;4988166;28;20049;-72
2023/06/17 06:27:07;;;;;;;15.65;4.25;;;;;;;22.28;100.00;99805.44;4988224;28;20072;-73
2023/06/17 06:29:32;;;;;;;6.20;3.50;;;;;;;21.99;100.00;99773.22;4987902;28;20434;-72
2023/06/17 06:31:58;;;;;;;7.10;3.15;;;;;;;22.25;100.00;99802.94;4988054;28;20050;-71
2023/06/17 06:34:23;;;;;;;6.82;4.65;;;;;;;21.66;100.00;99709.25;4985580;28;20034;-72
2023/06/17 06:36:49;;;;;;;17.08;4.78;;;;;;;21.79;100.00;99680.00;4986026;28;20034;-71
2023/06/17 06:39:15;;;;;;;7.43;4.57;;;;;;;22.38;100.00;99800.41;4988167;28;20040;-71
2023/06/17 06:41:40;;;;;;;7.70;5.47;;;;;;;21.86;100.00;99718.75;4987633;28;20166;-73
2023/06/17 06:44:06;;;;;;;7.38;4.75;;;;;;;22.48;100.00;99791.75;4987915;28;20034;-74
2023/06/17 06:46:32;;;;;;;6.60;4.82;;;;;;;22.36;100.00;99765.75;4987174;28;20065;-72
2023/06/17 06:48:58;;;;;;;6.97;3.95;;;;;;;22.23;100.00;99803.03;4987531;28;20061;-72
2023/06/17 06:51:23;;;;;;;5.78;4.32;;;;;;;22.54;100.00;99750.41;4987626;28;20088;-73
2023/06/17 06:53:49;;;;;;;7.35;3.83;;;;;;;22.31;100.00;99696.53;4987600;28;20077;-73
2023/06/17 06:56:14;;;;;;;4.63;3.40;;;;;;;22.80;100.00;99788.09;4987128;28;20058;-72
2023/06/17 06:58:40;;;;;;;6.10;3.72;;;;;;;22.39;100.00;99765.56;4987694;28;20030;-73
2023/06/17 07:01:05;;;;;;;5.70;3.45;;;;;;;22.90;100.00;99794.63;4987194;28;20059;-73
2023/06/17 07:03:32;;;;;;;7.60;4.88;;;;;;;22.89;100.00;99774.16;4987414;28;20522;-72
2023/06/17 07:05:57;;;;;;;6.63;4.90;;;;;;;23.38;100.00;99824.69;4987345;28;20121;-74
2023/06/17 07:08:24;;;;;;;5.88;3.78;;;;;;;23.57;100.00;99827.06;4987412;28;20173;-72
2023/06/17 07:10:50;;;;;;;8.57;3.13;;;;;;;23.12;100.00;99800.41;4987131;28;20053;-72
2023/06/17 07:13:17;;;;;;;5.13;3.58;;;;;;;23.22;100.00;99781.94;4987237;28;20046;-72
2023/06/17 07:15:43;;;;;;;10.07;4.25;;;;;;;22.63;100.00;99663.44;4985705;28;20057;-73
2023/06/17 07:18:10;;;;;;;6.28;5.13;;;;;;;23.05;100.00;99733.97;4986262;28;20407;-72
2023/06/17 07:20:35;;;;;;;4.68;3.13;;;;;;;23.15;100.00;99737.78;4987145;28;20026;-72
2023/06/17 07:23:01;;;;;;;8.98;4.05;;;;;;;22.74;100.00;99808.06;4987574;28;20046;-72
2023/06/17 07:25:28;;;;;;;7.30;3.35;;;;;;;22.61;100.00;99759.78;4985687;28;20096;-73
2023/06/17 07:27:56;;;;;;;5.72;3.45;;;;;;;22.41;100.00;99746.78;4987618;28;20045;-73
2023/06/17 07:30:22;;;;;;;6.70;3.72;;;;;;;22.90;100.00;99797.31;4987111;28;20044;-73
2023/06/17 07:32:48;;;;;;;5.95;3.10;;;;;;;22.32;100.00;99766.88;4985475;28;20042;-73
2023/06/17 07:35:13;;;;;;;5.15;3.40;;;;;;;22.83;100.00;99731.72;4987034;28;20145;-73
2023/06/17 07:37:39;;;;;;;4.68;3.38;;;;;;;23.68;100.00;99826.38;4986874;28;20034;-73
2023/06/17 07:40:06;;;;;;;5.63;4.68;;;;;;;23.19;100.00;99736.63;4986702;28;20053;-72
2023/06/17 07:42:31;;;;;;;8.52;3.72;;;;;;;23.65;100.00;99822.09;4986593;28;20038;-72
2023/06/17 07:44:57;;;;;;;6.30;2.53;;;;;;;23.46;100.00;99814.38;4986473;28;20865;-73
2023/06/17 07:47:23;;;;;;;9.32;3.65;;;;;;;23.78;100.00;99811.47;4978021;28;20209;-73
2023/06/17 07:49:49;;;;;;;5.53;3.15;;;;;;;23.77;100.00;99807.09;4980171;28;20068;-72
2023/06/17 07:52:14;;;;;;;4.78;3.80;;;;;;;23.25;100.00;99732.69;4986751;28;20053;-73
2023/06/17 07:54:41;;;;;;;6.13;3.65;;;;;;;23.09;100.00;99640.00;4984720;28;20509;-72
2023/06/17 07:57:06;;;;;;;4.40;2.65;;;;;;;23.74;100.00;99722.41;4986848;28;20111;-72
2023/06/17 07:59:32;;;;;;;8.88;5.03;;;;;;;23.90;100.00;99716.88;4986909;28;20050;-73
2023/06/17 08:01:58;;;;;;;5.57;4.07;;;;;;;23.94;100.00;99699.63;4986843;28;20133;-71
2023/06/17 08:04:25;;;;;;;4.78;2.70;;;;;;;24.74;100.00;99830.19;4987139;28;20832;-73
2023/06/17 08:06:51;;;;;;;4.85;2.60;;;;;;;24.77;100.00;99728.88;4985421;28;20403;-72
2023/06/17 08:09:16;;;;;;;9.43;3.13;;;;;;;25.25;100.00;99827.56;4986578;28;20486;-73
2023/06/17 08:11:43;;;;;;;5.00;3.47;;;;;;;25.43;100.00;99817.34;4986587;28;20079;-73
2023/06/17 08:14:08;;;;;;;3.17;1.88;;;;;;;25.43;100.00;99790.50;4986753;28;20034;-72
2023/06/17 08:16:34;;;;;;;4.32;2.50;;;;;;;25.89;100.00;99827.47;4986174;28;20084;-73
2023/06/17 08:18:59;;;;;;;3.63;2.55;;;;;;;25.00;100.00;99739.78;4986059;28;20193;-72
2023/06/17 08:21:26;;;;;;;7.32;2.53;;;;;;;25.35;100.00;99721.19;4986634;28;20592;-72
2023/06/17 08:23:51;;;;;;;8.63;2.55;;;;;;;25.30;100.00;99752.03;4984705;28;20039;-73
2023/06/17 08:26:17;;;;;;;6.35;2.13;;;;;;;25.48;97.11;99756.09;4986760;28;20038;-73
2023/06/17 08:28:42;;;;;;;2.92;1.75;;;;;;;25.85;100.00;99825.97;4974021;28;20035;-72
2023/06/17 08:31:08;;;;;;;3.38;2.20;;;;;;;26.09;100.00;99829.56;4986722;28;20042;-73
2023/06/17 08:33:34;;;;;;;4.10;3.33;;;;;;;25.14;100.00;99667.16;4986430;28;20138;-71
2023/06/17 08:35:59;;;;;;;4.60;2.97;;;;;;;25.64;99.76;99751.31;4985189;28;20108;-72
2023/06/17 08:38:25;;;;;;;2.95;2.17;;;;;;;25.01;98.57;99741.53;4986053;28;20087;-72
2023/06/17 08:40:51;;;;;;;5.80;2.20;;;;;;;25.56;100.00;99771.66;4986164;28;20544;-72
2023/06/17 08:43:19;;;;;;;3.25;2.00;;;;;;;25.78;93.11;99726.09;4984772;28;20724;-72
2023/06/17 08:45:49;;;;;;;3.85;2.85;;;;;;;26.57;93.09;99817.09;4986316;28;20030;-73
2023/06/17 08:48:16;;;;;;;2.45;1.70;;;;;;;26.61;86.79;99819.44;4984991;28;20532;-73
2023/06/17 08:50:45;;;;;;;2.88;1.85;;;;;;;26.59;86.38;99802.53;4986204;28;20038;-73
2023/06/17 08:53:12;;;;;;;3.33;1.80;;;;;;;26.25;87.85;99728.91;4986175;28;20902;-73
2023/06/17 08:55:37;;;;;;;3.08;2.13;;;;;;;26.52;87.69;99828.16;4985916;28;20125;-73
2023/06/17 08:58:03;;;;;;;3.03;2.00;;;;;;;25.41;92.81;99739.56;4988536;28;20054;-73
2023/06/17 09:00:29;;;;;;;10.50;2.97;;;;;;;25.77;92.43;99728.91;4990124;28;20092;-73
2023/06/17 09:02:58;;;;;;;5.00;2.10;;;;;;;25.94;87.59;99706.16;4989681;28;20030;-73
2023/06/17 09:05:24;;;;;;;3.65;2.20;;;;;;;26.73;92.62;99810.41;4989931;28;20038;-73
2023/06/17 09:07:49;;;;;;;5.90;2.30;;;;;;;26.59;86.21;99732.56;4989964;28;20088;-73
2023/06/17 09:10:15;;;;;;;4.05;2.78;;;;;;;27.65;85.77;99823.91;4989786;28;20031;-73
2023/06/17 09:12:41;;;;;;;2.83;2.10;;;;;;;27.49;78.26;99826.09;4990230;28;20038;-73
2023/06/17 09:15:13;;;;;;;2.65;1.60;;;;;;;27.52;73.71;99820.47;4987752;28;20124;-73
2023/06/17 09:17:39;;;;;;;4.07;1.80;;;;;;;27.70;74.26;99824.38;4988757;28;20041;-73
2023/06/17 09:20:13;;;;;;;2.58;1.55;;;;;;;26.88;77.90;99821.84;4989099;28;20035;-73
2023/06/17 09:22:43;;;;;;;2.40;1.80;;;;;;;26.33;72.63;99743.47;4989189;28;20046;-73
2023/06/17 09:25:11;;;;;;;3.35;1.83;;;;;;;26.78;74.54;99784.97;4989516;28;20141;-73
2023/06/17 09:27:44;;;;;;;5.32;2.83;;;;;;;26.18;84.52;99733.91;4989026;28;20065;-74
2023/06/17 09:30:10;;;;;;;2.78;2.00;;;;;;;26.55;83.82;99693.44;4988378;28;20038;-73
2023/06/17 09:32:41;;;;;;;5.13;2.08;;;;;;;26.64;84.34;99776.13;4989098;28;20105;-73
2023/06/17 09:35:12;;;;;;;3.65;2.42;;;;;;;26.79;83.79;99789.41;4989109;28;21029;-73
2023/06/17 09:37:37;;;;;;;5.82;4.07;;;;;;;27.16;84.86;99799.00;4988515;28;20030;-73
2023/06/17 09:40:06;;;;;;;3.38;2.80;;;;;;;26.67;77.99;99730.16;4987835;28;20110;-73
2023/06/17 09:42:31;;;;;;;3.70;2.10;;;;;;;26.48;84.28;99710.97;4988445;28;20065;-73
2023/06/17 09:45:03;;;;;;;6.97;2.28;;;;;;;26.81;80.95;99729.06;4987591;28;20081;-73
2023/06/17 09:47:37;;;;;;;3.80;1.98;;;;;;;27.38;85.05;99818.88;4988414;28;20578;-73
2023/06/17 09:50:04;;;;;;;3.95;2.13;;;;;;;26.84;78.37;99790.75;4988359;28;20026;-74
2023/06/17 09:52:32;;;;;;;3.03;1.90;;;;;;;27.25;81.93;99802.81;4988669;28;20042;-73
2023/06/17 09:54:58;;;;;;;3.22;1.95;;;;;;;26.79;79.47;99717.56;4986594;28;20496;-73
2023/06/17 09:57:31;;;;;;;2.80;1.98;;;;;;;27.25;80.06;99726.53;4988755;28;20112;-73
2023/06/17 10:00:15;;;;;;;;;;;;;;;27.76;77.67;99804.13;4989374;28;20038;-73
2023/06/17 10:02:40;;;;;;;5.22;2.50;;;;;;;27.28;78.79;99710.97;4987337;28;19976;-73
2023/06/17 10:05:12;;;;;;;3.78;2.42;;;;;;;26.97;80.65;99690.13;4988146;28;20035;-72
2023/06/17 10:07:40;;;;;;;4.10;2.27;;;;;;;26.67;81.49;99783.13;4974219;28;20058;-73
2023/06/17 10:10:09;;;;;;;5.20;3.00;;;;;;;27.15;85.28;99775.72;4985929;28;20081;-73
2023/06/17 10:12:38;;;;;;;5.68;3.40;;;;;;;27.44;77.26;99777.97;4988103;28;20038;-72
2023/06/17 10:15:05;;;;;;;5.55;3.03;;;;;;;27.20;78.87;99697.25;4986798;28;20026;-73
2023/06/17 10:17:34;;;;;;;3.75;2.53;;;;;;;27.72;75.06;99729.88;4986250;28;20026;-73
2023/06/17 10:20:03;;;;;;;3.50;2.35;;;;;;;27.38;77.43;99796.47;4987981;28;20030;-72
2023/06/17 10:22:31;;;;;;;3.72;2.05;;;;;;;27.64;77.90;99743.13;4986584;28;20034;-73
2023/06/17 10:24:56;;;;;;;5.63;3.30;;;;;;;27.04;77.52;99694.94;4987857;28;20069;-74
2023/06/17 10:27:22;;;;;;;4.30;2.15;;;;;;;27.33;75.28;99804.91;4987727;28;20069;-72
2023/06/17 10:29:50;;;;;;;5.30;2.33;;;;;;;26.23;78.87;99685.97;4987873;28;20390;-73
2023/06/17 10:32:22;;;;;;;3.55;2.15;;;;;;;26.96;79.31;99770.06;4987534;28;20026;-72
2023/06/17 10:35:12;;;;;;;5.30;1.95;;;;;;;27.41;74.86;99685.72;4987622;28;20407;-75
2023/06/17 10:37:43;;;;;;;7.10;2.80;;;;;;;28.39;70.20;99775.50;4987895;28;20042;-74
2023/06/17 10:40:26;;;;;;;3.83;2.53;;;;;;;28.38;64.78;99770.25;5018950;28;20034;-75
2023/06/17 10:43:03;;;;;;;3.13;2.45;;;;;;;28.37;67.44;99766.69;4987034;28;20022;-72
2023/06/17 10:45:44;;;;;;;2.20;1.58;;;;;;;29.10;63.89;99771.34;4987428;28;20041;-74
2023/06/17 10:48:19;;;;;;;4.00;2.65;;;;;;;30.07;59.59;99771.66;4986937;28;20049;-72
2023/06/17 10:50:50;;;;;;;2.42;1.67;;;;;;;29.80;58.10;99767.75;4987421;28;20030;-73
2023/06/17 10:53:16;;;;;;;9.82;2.72;;;;;;;29.55;56.53;99687.13;4987716;28;20470;-72
2023/06/17 10:55:42;;;;;;;3.70;2.47;;;;;;;29.13;57.07;99687.31;4987866;28;20061;-72
2023/06/17 10:58:08;;;;;;;5.07;2.85;;;;;;;30.05;55.78;99754.72;4987362;28;20038;-73
2023/06/17 11:00:33;;;;;;;4.35;2.58;;;;;;;29.88;55.66;99699.44;4987361;28;20049;-73
2023/06/17 11:02:59;;;;;;;3.67;2.13;;;;;;;29.93;55.09;99669.28;4987214;28;20038;-72
2023/06/17 11:05:25;;;;;;;2.45;2.22;;;;;;;30.34;54.84;99735.78;4987043;28;20574;-73
2023/06/17 11:07:50;;;;;;;3.00;2.15;;;;;;;30.30;53.94;99680.25;4985842;28;20117;-73
2023/06/17 11:10:16;;;;;;;9.93;2.53;;;;;;;30.08;55.65;99716.53;4987239;28;20121;-73
2023/06/17 11:12:46;;;;;;;3.03;1.85;;;;;;;30.03;54.38;99660.13;4986964;28;20045;-73
2023/06/17 11:15:11;;;;;;;2.55;1.60;;;;;;;30.86;52.70;99662.28;4984794;28;20165;-73
2023/06/17 11:17:37;;;;;;;6.82;2.65;;;;;;;30.23;52.26;99647.44;4986370;28;20092;-73
2023/06/17 11:20:06;;;;;;;5.32;2.05;;;;;;;30.44;52.73;99650.00;4986183;28;20034;-73
2023/06/17 11:22:37;;;;;;;2.85;1.73;;;;;;;31.31;51.42;99692.16;4987152;28;20038;-73
2023/06/17 11:25:02;;;;;;;2.58;1.85;;;;;;;30.78;51.30;99641.31;4987140;28;20141;-73
2023/06/17 11:27:29;;;;;;;3.38;2.20;;;;;;;29.19;55.22;99647.06;4987119;28;20113;-73